PWSweather.com
Personal Weather Stations
Station Observations
CW9610
Rural Jefferson County, Mclouth, KS 66054

Rural Jefferson CountyMclouth, KS 66054

Lat: 39.1947, Lon: -95.238

Elevation: 1151

Station Type: Davis VP2

http://mclwx.info

Latest ConditionsUpdated 8:00:01 PM CDT Wednesday, May 4, 2016
Currently Today's Max Today's Min Today's Average
Temperature 63.1°F17.3°C 68.2°F20.1°C 52.5°F11.4°C 60.6°F15.9°C
Dew Point 38.4°F3.6°C 45.8°F7.7°C 37.4°F3.0°C 42.8°F6.0°C
Winds 5.0 mph NNW8.0 kmh NNW 10.0 mph NW16.1 kmh NW - 6.3 mph 10.1 kmh
Wind Gusts 7.0 mph11.3 kmh 19.0 mph30.6 kmh - -
Humidity 40% 74% 34% 54%
Pressure 29.94 in1013.9 mb 29.98 in1015.2 mb 29.82 in1009.8 mb -
Hour Temp Dew Point Humidity Winds Wind Gusts Pressure Precip Precip Rate Daily Precip Total
08:00 PM 63.1°F17.3°C 38.4°F3.6°C 40% 5.0 mph NNW8.0 kmh NNW 7.0 mph11.3 kmh 29.94 in1013.9 mb 0.00 in0.0 mm 0.00 in0.0 mm 0.00 in0.0 mm
07:45 PM 64.0°F17.8°C 38.5°F3.6°C 39% 4.0 mph NNW6.4 kmh NNW 8.0 mph12.9 kmh 29.94 in1013.9 mb 0.00 in0.0 mm 0.00 in0.0 mm 0.00 in0.0 mm
07:30 PM 65.0°F18.3°C 37.4°F3.0°C 36% 5.0 mph NNW8.0 kmh NNW 11.0 mph17.7 kmh 29.94 in1013.9 mb 0.00 in0.0 mm 0.00 in0.0 mm 0.00 in0.0 mm
07:15 PM 65.8°F18.8°C 38.1°F3.4°C 36% 6.0 mph NNW9.7 kmh NNW 10.0 mph16.1 kmh 29.94 in1013.9 mb 0.00 in0.0 mm 0.00 in0.0 mm 0.00 in0.0 mm
07:00 PM 66.5°F19.2°C 38.0°F3.3°C 35% 7.0 mph NNW11.3 kmh NNW 12.0 mph19.3 kmh 29.94 in1013.9 mb 0.00 in0.0 mm 0.00 in0.0 mm 0.00 in0.0 mm
06:45 PM 67.0°F19.4°C 39.1°F3.9°C 36% 6.0 mph NNW9.7 kmh NNW 11.0 mph17.7 kmh 29.94 in1013.9 mb 0.00 in0.0 mm 0.00 in0.0 mm 0.00 in0.0 mm
06:30 PM 67.3°F19.6°C 38.0°F3.3°C 34% 9.0 mph NNW14.5 kmh NNW 14.0 mph22.5 kmh 29.94 in1013.9 mb 0.00 in0.0 mm 0.00 in0.0 mm 0.00 in0.0 mm
06:15 PM 67.4°F19.7°C 38.8°F3.8°C 35% 9.0 mph NNW14.5 kmh NNW 15.0 mph24.1 kmh 29.94 in1013.9 mb 0.00 in0.0 mm 0.00 in0.0 mm 0.00 in0.0 mm
06:00 PM 67.6°F19.8°C 39.7°F4.3°C 36% 9.0 mph NW14.5 kmh NW 15.0 mph24.1 kmh 29.95 in1014.2 mb 0.00 in0.0 mm 0.00 in0.0 mm 0.00 in0.0 mm
05:45 PM 67.9°F19.9°C 38.5°F3.6°C 34% 8.0 mph NNW12.9 kmh NNW 14.0 mph22.5 kmh 29.95 in1014.2 mb 0.00 in0.0 mm 0.00 in0.0 mm 0.00 in0.0 mm
05:30 PM 67.7°F19.8°C 39.0°F3.9°C 35% 9.0 mph NNW14.5 kmh NNW 13.0 mph20.9 kmh 29.95 in1014.2 mb 0.00 in0.0 mm 0.00 in0.0 mm 0.00 in0.0 mm
05:15 PM 68.0°F20.0°C 40.7°F4.8°C 37% 7.0 mph NW11.3 kmh NW 18.0 mph29.0 kmh 29.94 in1013.9 mb 0.00 in0.0 mm 0.00 in0.0 mm 0.00 in0.0 mm
05:00 PM 68.0°F20.0°C 40.7°F4.8°C 37% 8.0 mph NW12.9 kmh NW 12.0 mph19.3 kmh 29.94 in1013.9 mb 0.00 in0.0 mm 0.00 in0.0 mm 0.00 in0.0 mm
04:45 PM 68.2°F20.1°C 42.3°F5.7°C 39% 6.0 mph NW9.7 kmh NW 13.0 mph20.9 kmh 29.95 in1014.2 mb 0.00 in0.0 mm 0.00 in0.0 mm 0.00 in0.0 mm
04:30 PM 67.8°F19.9°C 43.9°F6.6°C 42% 8.0 mph NNW12.9 kmh NNW 18.0 mph29.0 kmh 29.95 in1014.2 mb 0.00 in0.0 mm 0.00 in0.0 mm 0.00 in0.0 mm
04:15 PM 67.7°F19.8°C 39.8°F4.3°C 36% 8.0 mph NW12.9 kmh NW 13.0 mph20.9 kmh 29.95 in1014.2 mb 0.00 in0.0 mm 0.00 in0.0 mm 0.00 in0.0 mm
04:00 PM 67.5°F19.7°C 41.7°F5.4°C 39% 7.0 mph NNW11.3 kmh NNW 12.0 mph19.3 kmh 29.95 in1014.2 mb 0.00 in0.0 mm 0.00 in0.0 mm 0.00 in0.0 mm
03:45 PM 67.7°F19.8°C 41.8°F5.4°C 39% 8.0 mph NW12.9 kmh NW 15.0 mph24.1 kmh 29.95 in1014.2 mb 0.00 in0.0 mm 0.00 in0.0 mm 0.00 in0.0 mm
03:30 PM 67.7°F19.8°C 40.5°F4.7°C 37% 7.0 mph NW11.3 kmh NW 16.0 mph25.7 kmh 29.96 in1014.6 mb 0.00 in0.0 mm 0.00 in0.0 mm 0.00 in0.0 mm
03:15 PM 67.4°F19.7°C 41.6°F5.3°C 39% 9.0 mph NW14.5 kmh NW 18.0 mph29.0 kmh 29.96 in1014.6 mb 0.00 in0.0 mm 0.00 in0.0 mm 0.00 in0.0 mm
03:00 PM 67.4°F19.7°C 40.9°F4.9°C 38% 9.0 mph NNW14.5 kmh NNW 17.0 mph27.4 kmh 29.96 in1014.6 mb 0.00 in0.0 mm 0.00 in0.0 mm 0.00 in0.0 mm
02:45 PM 66.7°F19.3°C 39.6°F4.2°C 37% 8.0 mph NW12.9 kmh NW 16.0 mph25.7 kmh 29.97 in1014.9 mb 0.00 in0.0 mm 0.00 in0.0 mm 0.00 in0.0 mm
02:30 PM 66.7°F19.3°C 40.3°F4.6°C 38% 10.0 mph NNW16.1 kmh NNW 19.0 mph30.6 kmh 29.97 in1014.9 mb 0.00 in0.0 mm 0.00 in0.0 mm 0.00 in0.0 mm
02:15 PM 66.3°F19.1°C 38.5°F3.6°C 36% 8.0 mph NNW12.9 kmh NNW 17.0 mph27.4 kmh 29.97 in1014.9 mb 0.00 in0.0 mm 0.00 in0.0 mm 0.00 in0.0 mm
02:00 PM 66.1°F18.9°C 38.4°F3.6°C 36% 9.0 mph NW14.5 kmh NW 14.0 mph22.5 kmh 29.97 in1014.9 mb 0.00 in0.0 mm 0.00 in0.0 mm 0.00 in0.0 mm
01:45 PM 65.9°F18.8°C 39.6°F4.2°C 38% 10.0 mph NNW16.1 kmh NNW 17.0 mph27.4 kmh 29.97 in1014.9 mb 0.00 in0.0 mm 0.00 in0.0 mm 0.00 in0.0 mm
01:30 PM 65.5°F18.6°C 41.2°F5.1°C 41% 10.0 mph NNW16.1 kmh NNW 16.0 mph25.7 kmh 29.97 in1014.9 mb 0.00 in0.0 mm 0.00 in0.0 mm 0.00 in0.0 mm
01:15 PM 65.9°F18.8°C 43.9°F6.6°C 45% 8.0 mph NW12.9 kmh NW 14.0 mph22.5 kmh 29.97 in1014.9 mb 0.00 in0.0 mm 0.00 in0.0 mm 0.00 in0.0 mm
01:00 PM 65.2°F18.4°C 41.5°F5.3°C 42% 9.0 mph NW14.5 kmh NW 19.0 mph30.6 kmh 29.98 in1015.2 mb 0.00 in0.0 mm 0.00 in0.0 mm 0.00 in0.0 mm
12:45 PM 65.3°F18.5°C 43.4°F6.3°C 45% 8.0 mph NW12.9 kmh NW 14.0 mph22.5 kmh 29.98 in1015.2 mb 0.00 in0.0 mm 0.00 in0.0 mm 0.00 in0.0 mm
12:30 PM 64.9°F18.3°C 42.5°F5.8°C 44% 8.0 mph NNW12.9 kmh NNW 14.0 mph22.5 kmh 29.98 in1015.2 mb 0.00 in0.0 mm 0.00 in0.0 mm 0.00 in0.0 mm
12:15 PM 64.5°F18.1°C 44.4°F6.9°C 48% 8.0 mph NNW12.9 kmh NNW 14.0 mph22.5 kmh 29.98 in1015.2 mb 0.00 in0.0 mm 0.00 in0.0 mm 0.00 in0.0 mm
12:00 PM 63.7°F17.6°C 45.2°F7.3°C 51% 9.0 mph NW14.5 kmh NW 13.0 mph20.9 kmh 29.98 in1015.2 mb 0.00 in0.0 mm 0.00 in0.0 mm 0.00 in0.0 mm
11:45 AM 63.3°F17.4°C 43.3°F6.3°C 48% 8.0 mph NNW12.9 kmh NNW 14.0 mph22.5 kmh 29.98 in1015.2 mb 0.00 in0.0 mm 0.00 in0.0 mm 0.00 in0.0 mm
11:30 AM 63.0°F17.2°C 44.1°F6.7°C 50% 8.0 mph NW12.9 kmh NW 14.0 mph22.5 kmh 29.98 in1015.2 mb 0.00 in0.0 mm 0.00 in0.0 mm 0.00 in0.0 mm
11:15 AM 62.3°F16.8°C 43.9°F6.6°C 51% 9.0 mph NW14.5 kmh NW 13.0 mph20.9 kmh 29.97 in1014.9 mb 0.00 in0.0 mm 0.00 in0.0 mm 0.00 in0.0 mm
11:00 AM 61.8°F16.6°C 43.5°F6.4°C 51% 9.0 mph NNW14.5 kmh NNW 13.0 mph20.9 kmh 29.96 in1014.6 mb 0.00 in0.0 mm 0.00 in0.0 mm 0.00 in0.0 mm
10:45 AM 61.5°F16.4°C 44.7°F7.1°C 54% 10.0 mph NNW16.1 kmh NNW 17.0 mph27.4 kmh 29.96 in1014.6 mb 0.00 in0.0 mm 0.00 in0.0 mm 0.00 in0.0 mm
10:30 AM 61.0°F16.1°C 43.2°F6.2°C 52% 10.0 mph NNW16.1 kmh NNW 15.0 mph24.1 kmh 29.95 in1014.2 mb 0.00 in0.0 mm 0.00 in0.0 mm 0.00 in0.0 mm
10:15 AM 60.1°F15.6°C 43.9°F6.6°C 55% 10.0 mph NW16.1 kmh NW 15.0 mph24.1 kmh 29.95 in1014.2 mb 0.00 in0.0 mm 0.00 in0.0 mm 0.00 in0.0 mm
09:45 AM 59.5°F15.3°C 42.8°F6.0°C 54% 9.0 mph NNW14.5 kmh NNW 14.0 mph22.5 kmh 29.94 in1013.9 mb 0.00 in0.0 mm 0.00 in0.0 mm 0.00 in0.0 mm
09:30 AM 58.7°F14.8°C 42.6°F5.9°C 55% 9.0 mph NW14.5 kmh NW 14.0 mph22.5 kmh 29.94 in1013.9 mb 0.00 in0.0 mm 0.00 in0.0 mm 0.00 in0.0 mm
09:15 AM 58.0°F14.4°C 42.4°F5.8°C 56% 9.0 mph NNW14.5 kmh NNW 15.0 mph24.1 kmh 29.94 in1013.9 mb 0.00 in0.0 mm 0.00 in0.0 mm 0.00 in0.0 mm
09:00 AM 57.9°F14.4°C 42.3°F5.7°C 56% 8.0 mph NNW12.9 kmh NNW 13.0 mph20.9 kmh 29.93 in1013.5 mb 0.00 in0.0 mm 0.00 in0.0 mm 0.00 in0.0 mm
08:45 AM 57.1°F13.9°C 41.5°F5.3°C 56% 8.0 mph NNW12.9 kmh NNW 14.0 mph22.5 kmh 29.93 in1013.5 mb 0.00 in0.0 mm 0.00 in0.0 mm 0.00 in0.0 mm
08:30 AM 56.7°F13.7°C 42.1°F5.6°C 58% 8.0 mph NW12.9 kmh NW 14.0 mph22.5 kmh 29.92 in1013.2 mb 0.00 in0.0 mm 0.00 in0.0 mm 0.00 in0.0 mm
08:15 AM 56.3°F13.5°C 43.0°F6.1°C 61% 7.0 mph NW11.3 kmh NW 11.0 mph17.7 kmh 29.92 in1013.2 mb 0.00 in0.0 mm 0.00 in0.0 mm 0.00 in0.0 mm
08:00 AM 55.7°F13.2°C 42.5°F5.8°C 61% 7.0 mph NW11.3 kmh NW 10.0 mph16.1 kmh 29.91 in1012.9 mb 0.00 in0.0 mm 0.00 in0.0 mm 0.00 in0.0 mm
07:45 AM 55.1°F12.8°C 42.7°F5.9°C 63% 6.0 mph NW9.7 kmh NW 9.0 mph14.5 kmh 29.90 in1012.5 mb 0.00 in0.0 mm 0.00 in0.0 mm 0.00 in0.0 mm
07:30 AM 54.5°F12.5°C 42.6°F5.9°C 64% 6.0 mph NW9.7 kmh NW 11.0 mph17.7 kmh 29.89 in1012.2 mb 0.00 in0.0 mm 0.00 in0.0 mm 0.00 in0.0 mm
07:15 AM 53.7°F12.1°C 43.0°F6.1°C 67% 6.0 mph NW9.7 kmh NW 10.0 mph16.1 kmh 29.89 in1012.2 mb 0.00 in0.0 mm 0.00 in0.0 mm 0.00 in0.0 mm
07:00 AM 52.9°F11.6°C 43.4°F6.3°C 70% 5.0 mph NW8.0 kmh NW 10.0 mph16.1 kmh 29.88 in1011.9 mb 0.00 in0.0 mm 0.00 in0.0 mm 0.00 in0.0 mm
06:45 AM 52.5°F11.4°C 44.1°F6.7°C 73% 4.0 mph NW6.4 kmh NW 7.0 mph11.3 kmh 29.88 in1011.9 mb 0.00 in0.0 mm 0.00 in0.0 mm 0.00 in0.0 mm
06:30 AM 52.5°F11.4°C 44.4°F6.9°C 74% 4.0 mph NW6.4 kmh NW 6.0 mph9.7 kmh 29.87 in1011.5 mb 0.00 in0.0 mm 0.00 in0.0 mm 0.00 in0.0 mm
06:15 AM 52.9°F11.6°C 44.5°F6.9°C 73% 4.0 mph NW6.4 kmh NW 7.0 mph11.3 kmh 29.86 in1011.2 mb 0.00 in0.0 mm 0.00 in0.0 mm 0.00 in0.0 mm
06:00 AM 53.4°F11.9°C 44.6°F7.0°C 72% 4.0 mph NW6.4 kmh NW 7.0 mph11.3 kmh 29.85 in1010.8 mb 0.00 in0.0 mm 0.00 in0.0 mm 0.00 in0.0 mm
05:45 AM 54.1°F12.3°C 44.9°F7.2°C 71% 4.0 mph NW6.4 kmh NW 7.0 mph11.3 kmh 29.85 in1010.8 mb 0.00 in0.0 mm 0.00 in0.0 mm 0.00 in0.0 mm
05:30 AM 54.7°F12.6°C 45.1°F7.3°C 70% 5.0 mph WNW8.0 kmh WNW 9.0 mph14.5 kmh 29.84 in1010.5 mb 0.00 in0.0 mm 0.00 in0.0 mm 0.00 in0.0 mm
05:15 AM 55.3°F12.9°C 45.3°F7.4°C 69% 5.0 mph WNW8.0 kmh WNW 9.0 mph14.5 kmh 29.84 in1010.5 mb 0.00 in0.0 mm 0.00 in0.0 mm 0.00 in0.0 mm
05:00 AM 55.8°F13.2°C 45.4°F7.4°C 68% 6.0 mph WNW9.7 kmh WNW 9.0 mph14.5 kmh 29.84 in1010.5 mb 0.00 in0.0 mm 0.00 in0.0 mm 0.00 in0.0 mm
04:45 AM 56.2°F13.4°C 45.4°F7.4°C 67% 5.0 mph WNW8.0 kmh WNW 8.0 mph12.9 kmh 29.84 in1010.5 mb 0.00 in0.0 mm 0.00 in0.0 mm 0.00 in0.0 mm
04:30 AM 56.8°F13.8°C 45.6°F7.6°C 66% 6.0 mph WNW9.7 kmh WNW 11.0 mph17.7 kmh 29.84 in1010.5 mb 0.00 in0.0 mm 0.00 in0.0 mm 0.00 in0.0 mm
04:15 AM 55.6°F13.1°C 45.6°F7.6°C 69% 5.0 mph WNW8.0 kmh WNW 14.0 mph22.5 kmh 29.84 in1010.5 mb 0.00 in0.0 mm 0.00 in0.0 mm 0.00 in0.0 mm
04:00 AM 55.4°F13.0°C 45.4°F7.4°C 69% 2.0 mph WSW3.2 kmh WSW 5.0 mph8.0 kmh 29.82 in1009.8 mb 0.00 in0.0 mm 0.00 in0.0 mm 0.00 in0.0 mm
03:45 AM 55.6°F13.1°C 45.6°F7.6°C 69% 2.0 mph WSW3.2 kmh WSW 6.0 mph9.7 kmh 29.83 in1010.2 mb 0.00 in0.0 mm 0.00 in0.0 mm 0.00 in0.0 mm
03:30 AM 55.8°F13.2°C 45.8°F7.7°C 69% 2.0 mph WSW3.2 kmh WSW 6.0 mph9.7 kmh 29.83 in1010.2 mb 0.00 in0.0 mm 0.00 in0.0 mm 0.00 in0.0 mm
03:15 AM 55.7°F13.2°C 45.7°F7.6°C 69% 2.0 mph WSW3.2 kmh WSW 6.0 mph9.7 kmh 29.83 in1010.2 mb 0.00 in0.0 mm 0.00 in0.0 mm 0.00 in0.0 mm
03:00 AM 55.3°F12.9°C 45.7°F7.6°C 70% 2.0 mph WSW3.2 kmh WSW 7.0 mph11.3 kmh 29.84 in1010.5 mb 0.00 in0.0 mm 0.00 in0.0 mm 0.00 in0.0 mm
02:45 AM 55.2°F12.9°C 45.6°F7.6°C 70% 2.0 mph WSW3.2 kmh WSW 4.0 mph6.4 kmh 29.84 in1010.5 mb 0.00 in0.0 mm 0.00 in0.0 mm 0.00 in0.0 mm
02:30 AM 55.2°F12.9°C 45.6°F7.6°C 70% 2.0 mph WSW3.2 kmh WSW 4.0 mph6.4 kmh 29.84 in1010.5 mb 0.00 in0.0 mm 0.00 in0.0 mm 0.00 in0.0 mm
02:15 AM 55.6°F13.1°C 45.6°F7.6°C 69% 2.0 mph WSW3.2 kmh WSW 6.0 mph9.7 kmh 29.85 in1010.8 mb 0.00 in0.0 mm 0.00 in0.0 mm 0.00 in0.0 mm
02:00 AM 55.5°F13.1°C 45.1°F7.3°C 68% 2.0 mph WSW3.2 kmh WSW 6.0 mph9.7 kmh 29.85 in1010.8 mb 0.00 in0.0 mm 0.00 in0.0 mm 0.00 in0.0 mm
01:45 AM 55.2°F12.9°C 45.6°F7.6°C 70% 2.0 mph WSW3.2 kmh WSW 5.0 mph8.0 kmh 29.86 in1011.2 mb 0.00 in0.0 mm 0.00 in0.0 mm 0.00 in0.0 mm
01:30 AM 55.4°F13.0°C 45.8°F7.7°C 70% 4.0 mph SW6.4 kmh SW 6.0 mph9.7 kmh 29.86 in1011.2 mb 0.00 in0.0 mm 0.00 in0.0 mm 0.00 in0.0 mm
01:15 AM 55.5°F13.1°C 45.5°F7.5°C 69% 4.0 mph SW6.4 kmh SW 6.0 mph9.7 kmh 29.87 in1011.5 mb 0.00 in0.0 mm 0.00 in0.0 mm 0.00 in0.0 mm
01:00 AM 55.6°F13.1°C 45.6°F7.6°C 69% 3.0 mph SW4.8 kmh SW 5.0 mph8.0 kmh 29.87 in1011.5 mb 0.00 in0.0 mm 0.00 in0.0 mm 0.00 in0.0 mm
12:45 AM 56.0°F13.3°C 45.2°F7.3°C 67% 3.0 mph SW4.8 kmh SW 5.0 mph8.0 kmh 29.88 in1011.9 mb 0.00 in0.0 mm 0.00 in0.0 mm 0.00 in0.0 mm
12:30 AM 56.3°F13.5°C 45.1°F7.3°C 66% 3.0 mph SW4.8 kmh SW 6.0 mph9.7 kmh 29.88 in1011.9 mb 0.00 in0.0 mm 0.00 in0.0 mm 0.00 in0.0 mm
12:15 AM 56.6°F13.7°C 45.0°F7.2°C 65% 3.0 mph SW4.8 kmh SW 5.0 mph8.0 kmh 29.88 in1011.9 mb 0.00 in0.0 mm 0.00 in0.0 mm 0.00 in0.0 mm
12:00 AM 57.3°F14.1°C 44.8°F7.1°C 63% 3.0 mph SW4.8 kmh SW 5.0 mph8.0 kmh 29.88 in1011.9 mb 0.00 in0.0 mm 0.00 in0.0 mm 0.00 in0.0 mm